createdAt,value
2022-12-23T00:01:36.941Z,20.70
2022-12-23T00:05:44.708Z,24.40
2022-12-23T00:09:52.549Z,15.10
2022-12-23T00:14:21.531Z,12.80
2022-12-23T00:18:29.804Z,15.20
2022-12-23T00:22:54.948Z,19.60
2022-12-23T00:27:06.622Z,20.00
2022-12-23T00:31:14.849Z,19.20
2022-12-23T00:35:22.509Z,15.30
2022-12-23T00:39:50.771Z,14.50
2022-12-23T00:44:02.789Z,14.40
2022-12-23T00:48:28.390Z,12.60
2022-12-23T00:52:36.566Z,13.20
2022-12-23T00:56:44.089Z,12.50
2022-12-23T01:01:09.603Z,11.80
2022-12-23T01:05:35.575Z,12.10
2022-12-23T01:09:46.384Z,13.20
2022-12-23T01:13:54.826Z,15.10
2022-12-23T01:18:02.690Z,13.50
2022-12-23T01:22:10.326Z,12.30
2022-12-23T01:26:19.932Z,12.70
2022-12-23T01:30:28.198Z,12.80
2022-12-23T01:34:37.502Z,11.20
2022-12-23T01:38:45.556Z,11.40
2022-12-23T01:42:53.916Z,11.60
2022-12-23T01:47:01.850Z,11.30
2022-12-23T01:51:12.653Z,11.20
2022-12-23T01:55:24.514Z,10.00
2022-12-23T01:59:50.508Z,10.70
2022-12-23T02:04:01.244Z,10.20
2022-12-23T02:08:27.926Z,10.10
2022-12-23T02:12:53.855Z,10.40
2022-12-23T02:17:09.269Z,11.00
2022-12-23T02:21:33.561Z,10.80
2022-12-23T02:26:02.262Z,12.60
2022-12-23T02:30:30.242Z,11.50
2022-12-23T02:34:42.300Z,11.00
2022-12-23T02:38:55.862Z,11.60
2022-12-23T02:43:08.693Z,10.50
2022-12-23T02:47:21.607Z,9.80
2022-12-23T02:51:32.623Z,9.40
2022-12-23T02:55:43.581Z,11.30
2022-12-23T02:59:53.329Z,12.10
2022-12-23T03:04:01.229Z,11.80
2022-12-23T03:08:19.228Z,14.00
2022-12-23T03:12:37.221Z,12.50
2022-12-23T03:16:53.244Z,12.10
2022-12-23T03:21:08.006Z,12.20
2022-12-23T03:25:22.086Z,10.80
2022-12-23T03:29:36.473Z,11.00
2022-12-23T03:33:46.774Z,13.80
2022-12-23T03:37:56.565Z,15.70
2022-12-23T03:42:09.619Z,13.50
2022-12-23T03:46:21.637Z,12.50
2022-12-23T03:50:30.922Z,12.60
2022-12-23T03:54:42.369Z,13.90
2022-12-23T03:58:57.395Z,13.40
2022-12-23T04:03:12.429Z,13.60
2022-12-23T04:07:23.161Z,12.50
2022-12-23T04:11:31.726Z,11.10
2022-12-23T04:15:42.469Z,14.60
2022-12-23T04:19:50.961Z,13.20
2022-12-23T04:23:58.664Z,12.60
2022-12-23T04:28:06.655Z,12.20
2022-12-23T04:32:14.373Z,11.30
2022-12-23T04:36:22.018Z,12.60
2022-12-23T04:40:29.568Z,15.60
2022-12-23T04:44:37.249Z,16.00
2022-12-23T04:48:44.854Z,12.90
2022-12-23T04:52:52.461Z,11.60
2022-12-23T04:57:00.276Z,9.90
2022-12-23T05:01:10.578Z,10.10
2022-12-23T05:05:19.052Z,12.00
2022-12-23T05:09:26.653Z,11.50
2022-12-23T05:13:34.603Z,11.30
2022-12-23T05:17:42.068Z,12.00
2022-12-23T05:21:49.917Z,9.50
2022-12-23T05:25:57.632Z,10.20
2022-12-23T05:30:06.973Z,11.20
2022-12-23T05:34:14.705Z,10.90
2022-12-23T05:38:23.181Z,8.70
2022-12-23T05:42:30.333Z,9.40
2022-12-23T05:46:39.245Z,11.60
2022-12-23T05:50:47.165Z,9.90
2022-12-23T05:54:54.974Z,11.70
2022-12-23T05:59:03.188Z,10.80
2022-12-23T06:03:12.113Z,12.40
2022-12-23T06:07:19.790Z,13.30
2022-12-23T06:11:27.280Z,10.60
2022-12-23T06:15:35.312Z,11.10
2022-12-23T06:19:45.394Z,8.40
2022-12-23T06:23:53.059Z,7.50
2022-12-23T06:28:00.796Z,9.20
2022-12-23T06:32:09.264Z,7.90
2022-12-23T06:36:17.305Z,8.80
2022-12-23T06:40:24.934Z,8.80
2022-12-23T06:44:32.626Z,9.00
2022-12-23T06:48:40.189Z,9.00
2022-12-23T06:52:49.252Z,9.60
2022-12-23T06:56:56.605Z,11.80
2022-12-23T07:01:07.354Z,14.70
2022-12-23T07:05:39.454Z,11.20
2022-12-23T07:09:47.580Z,9.00
2022-12-23T07:13:55.744Z,7.20
2022-12-23T07:18:04.652Z,7.00
2022-12-23T07:22:12.886Z,10.50
2022-12-23T07:26:20.962Z,9.70
2022-12-23T07:30:29.360Z,7.90
2022-12-23T07:34:37.824Z,7.90
2022-12-23T07:38:46.034Z,6.50
2022-12-23T07:42:58.207Z,7.80
2022-12-23T07:47:06.458Z,8.70
2022-12-23T07:51:14.589Z,7.40
2022-12-23T07:55:22.284Z,8.80
2022-12-23T07:59:31.377Z,7.40
2022-12-23T08:03:40.215Z,7.10
2022-12-23T08:07:50.450Z,7.80
2022-12-23T08:11:57.823Z,6.80
2022-12-23T08:16:07.049Z,7.40
2022-12-23T08:20:15.526Z,8.10
2022-12-23T08:24:22.893Z,9.80
2022-12-23T08:28:31.642Z,10.70
2022-12-23T08:32:42.127Z,8.60
2022-12-23T08:36:49.806Z,9.20
2022-12-23T08:40:58.096Z,12.00
2022-12-23T08:45:30.631Z,12.10
2022-12-23T08:49:39.420Z,10.50
2022-12-23T08:53:47.451Z,8.90
2022-12-23T08:57:55.500Z,8.40
2022-12-23T09:02:03.543Z,8.20
2022-12-23T09:06:14.641Z,9.60
2022-12-23T09:10:48.123Z,9.50
2022-12-23T09:14:56.823Z,9.30
2022-12-23T09:19:04.580Z,8.90
2022-12-23T09:23:12.504Z,9.30
2022-12-23T09:27:21.348Z,10.60
2022-12-23T09:31:36.238Z,9.20
2022-12-23T09:35:45.187Z,8.80
2022-12-23T09:39:52.984Z,8.20
2022-12-23T09:44:13.554Z,9.10
2022-12-23T09:48:27.164Z,8.60
2022-12-23T09:52:44.405Z,7.40
2022-12-23T09:56:56.211Z,9.00
2022-12-23T10:01:15.680Z,7.30
2022-12-23T10:05:31.641Z,7.30
2022-12-23T10:09:41.051Z,8.20
2022-12-23T10:13:52.460Z,9.30
2022-12-23T10:18:04.320Z,8.70
2022-12-23T10:22:18.294Z,9.50
2022-12-23T10:26:30.700Z,8.90
2022-12-23T10:31:05.785Z,10.50
2022-12-23T10:35:17.563Z,10.60
2022-12-23T10:39:29.958Z,10.50
2022-12-23T10:43:47.019Z,10.10
2022-12-23T10:48:13.681Z,8.90
2022-12-23T10:52:24.089Z,8.00
2022-12-23T10:56:39.644Z,7.70
2022-12-23T11:00:57.719Z,11.90
2022-12-23T11:05:09.836Z,11.70
2022-12-23T11:09:21.207Z,8.70
2022-12-23T11:13:38.160Z,9.40
2022-12-23T11:18:01.622Z,10.00
2022-12-23T11:22:10.854Z,9.90
2022-12-23T11:26:23.184Z,10.80
2022-12-23T11:30:36.637Z,11.40
2022-12-23T11:34:47.952Z,10.40
2022-12-23T11:39:00.658Z,9.10
2022-12-23T11:43:13.358Z,12.80
2022-12-23T11:47:30.863Z,15.00
2022-12-23T11:51:39.201Z,19.10
2022-12-23T11:55:57.911Z,13.70
2022-12-23T12:00:33.552Z,13.70
2022-12-23T12:04:41.973Z,9.80
2022-12-23T12:08:51.942Z,8.70
2022-12-23T12:13:04.787Z,8.20
2022-12-23T12:17:17.949Z,8.90
2022-12-23T12:21:30.720Z,9.00
2022-12-23T12:25:43.297Z,9.30
2022-12-23T12:29:56.016Z,9.60
2022-12-23T12:34:12.107Z,7.50
2022-12-23T12:38:26.567Z,6.50
2022-12-23T12:42:39.727Z,7.20
2022-12-23T12:46:51.604Z,7.10
2022-12-23T12:51:05.959Z,10.20
2022-12-23T12:55:21.475Z,9.60
2022-12-23T12:59:31.196Z,9.80
2022-12-23T13:03:58.517Z,10.20
2022-12-23T13:08:19.191Z,12.90
2022-12-23T13:12:36.863Z,9.70
2022-12-23T13:16:50.529Z,7.30
2022-12-23T13:21:03.510Z,9.30
2022-12-23T13:25:35.398Z,9.20
2022-12-23T13:29:58.766Z,12.60
2022-12-23T13:34:14.971Z,12.70
2022-12-23T13:38:36.070Z,11.80
2022-12-23T13:42:48.014Z,11.20
2022-12-23T13:47:04.303Z,10.60
2022-12-23T13:51:16.948Z,9.40
2022-12-23T13:55:38.912Z,10.90
2022-12-23T14:00:04.852Z,11.40
2022-12-23T14:04:47.660Z,13.80
2022-12-23T14:08:57.057Z,12.20
2022-12-23T14:13:07.336Z,10.90
2022-12-23T14:17:19.937Z,15.20
2022-12-23T14:21:37.475Z,15.90
2022-12-23T14:26:18.970Z,18.30
2022-12-23T14:30:36.231Z,17.60
2022-12-23T14:35:07.501Z,20.00
2022-12-23T14:39:33.940Z,21.90
2022-12-23T14:44:02.970Z,21.70
2022-12-23T14:48:44.635Z,20.40
2022-12-23T14:53:07.035Z,18.00
2022-12-23T14:57:21.752Z,20.50
2022-12-23T15:01:35.074Z,19.30
2022-12-23T15:05:44.866Z,20.70
2022-12-23T15:10:00.664Z,29.40
2022-12-23T15:14:12.251Z,26.10
2022-12-23T15:18:20.045Z,26.60
2022-12-23T15:22:34.092Z,19.40
2022-12-23T15:26:57.585Z,27.30
2022-12-23T15:31:29.352Z,20.90
2022-12-23T15:35:39.950Z,21.90
2022-12-23T15:39:52.701Z,21.10
2022-12-23T15:44:06.083Z,19.80
2022-12-23T15:48:29.695Z,24.60
2022-12-23T15:52:37.448Z,32.00
2022-12-23T15:56:50.304Z,36.70
2022-12-23T16:01:00.190Z,43.30
2022-12-23T16:05:10.580Z,31.70
2022-12-23T16:09:32.618Z,27.50
2022-12-23T16:13:47.363Z,36.80
2022-12-23T16:18:14.692Z,42.00
2022-12-23T16:22:28.613Z,51.10
2022-12-23T16:26:45.025Z,52.30
2022-12-23T16:30:57.069Z,49.00
2022-12-23T16:35:13.703Z,58.40
2022-12-23T16:39:27.264Z,78.60
2022-12-23T16:43:35.009Z,88.20
2022-12-23T16:47:45.298Z,82.00
2022-12-23T16:51:54.073Z,59.20
2022-12-23T16:56:01.972Z,32.30
2022-12-23T17:00:12.539Z,25.50
2022-12-23T17:04:21.486Z,22.30
2022-12-23T17:08:29.489Z,22.90
2022-12-23T17:12:38.012Z,26.70
2022-12-23T17:16:46.175Z,25.60
2022-12-23T17:20:54.476Z,26.30
2022-12-23T17:25:02.083Z,28.70
2022-12-23T17:29:13.350Z,26.00
2022-12-23T17:33:21.618Z,27.10
2022-12-23T17:37:32.028Z,22.70
2022-12-23T17:41:41.882Z,22.50
2022-12-23T17:45:51.091Z,27.20
2022-12-23T17:49:59.107Z,30.00
2022-12-23T17:54:08.806Z,31.10
2022-12-23T17:58:16.869Z,32.80
2022-12-23T18:02:30.787Z,36.40
2022-12-23T18:06:39.107Z,36.70
2022-12-23T18:10:47.229Z,42.60
2022-12-23T18:14:55.984Z,31.70
2022-12-23T18:19:04.793Z,31.40
2022-12-23T18:23:16.168Z,32.20
2022-12-23T18:27:27.132Z,34.60
2022-12-23T18:31:37.309Z,31.60
2022-12-23T18:35:48.535Z,30.40
2022-12-23T18:39:56.346Z,29.40
2022-12-23T18:44:04.572Z,34.50
2022-12-23T18:48:12.322Z,30.50
2022-12-23T18:52:23.194Z,31.60
2022-12-23T18:56:30.935Z,32.20
2022-12-23T19:09:53.147Z,32.90
2022-12-23T19:14:00.902Z,31.50
2022-12-23T19:18:10.079Z,32.60
2022-12-23T19:22:20.885Z,32.60
2022-12-23T19:26:29.198Z,31.20
2022-12-23T19:30:37.251Z,29.10
2022-12-23T19:34:45.463Z,28.70
2022-12-23T19:38:53.637Z,29.90
2022-12-23T19:43:01.675Z,25.40
2022-12-23T19:47:09.438Z,29.90
2022-12-23T19:51:18.827Z,30.20
2022-12-23T19:55:32.007Z,33.20
2022-12-23T19:59:46.709Z,31.80
2022-12-23T20:03:56.533Z,30.90
2022-12-23T20:08:06.175Z,27.70
2022-12-23T20:12:14.279Z,25.80
2022-12-23T20:16:24.520Z,31.30
2022-12-23T20:20:38.469Z,28.50
2022-12-23T20:24:47.199Z,27.10
2022-12-23T20:28:55.114Z,25.20
2022-12-23T20:33:04.009Z,26.90
2022-12-23T20:37:13.321Z,26.10
2022-12-23T20:41:23.439Z,31.90
2022-12-23T20:45:30.829Z,36.00
2022-12-23T20:49:38.774Z,40.40
2022-12-23T20:53:46.797Z,44.80
2022-12-23T20:57:54.960Z,40.50
2022-12-23T21:02:02.918Z,41.60
2022-12-23T21:06:13.197Z,45.60
2022-12-23T21:10:21.801Z,45.80
2022-12-23T21:14:29.688Z,47.90
2022-12-23T21:18:40.714Z,52.20
2022-12-23T21:22:52.365Z,42.70
2022-12-23T21:27:00.218Z,39.30
2022-12-23T21:31:09.045Z,39.30
2022-12-23T21:35:17.125Z,37.40
2022-12-23T21:39:25.929Z,46.70
2022-12-23T21:43:33.735Z,50.90
2022-12-23T21:47:43.592Z,49.20
2022-12-23T21:51:51.180Z,41.10
2022-12-23T21:56:03.798Z,38.70
2022-12-23T22:00:13.338Z,26.00
2022-12-23T22:04:22.831Z,26.10
2022-12-23T22:08:30.447Z,32.40
2022-12-23T22:12:38.678Z,32.10
2022-12-23T22:16:46.377Z,29.40
2022-12-23T22:20:54.499Z,30.00
2022-12-23T22:25:02.530Z,31.40
2022-12-23T22:29:14.653Z,32.50
2022-12-23T22:33:22.709Z,23.40
2022-12-23T22:37:31.143Z,21.60
2022-12-23T22:41:39.764Z,21.50
2022-12-23T22:45:48.662Z,23.60
2022-12-23T22:49:56.570Z,21.10
2022-12-23T22:54:04.869Z,20.50
2022-12-23T22:58:12.658Z,23.70
2022-12-23T23:02:20.948Z,22.70
2022-12-23T23:06:29.996Z,29.70
2022-12-23T23:10:37.968Z,23.20
2022-12-23T23:14:56.518Z,20.70
2022-12-23T23:19:04.584Z,22.90
2022-12-23T23:23:13.578Z,23.00
2022-12-23T23:27:22.490Z,25.60
2022-12-23T23:31:46.181Z,22.00
2022-12-23T23:35:58.652Z,21.70
2022-12-23T23:40:08.163Z,22.00
2022-12-23T23:44:16.841Z,23.50
2022-12-23T23:48:25.649Z,20.30
2022-12-23T23:52:34.024Z,18.90
2022-12-23T23:56:41.997Z,17.10
